Time;durP1;ratioP1;P1;durP2;ratioP2;P2;SDS_P1;SDS_P2;PMS_P1;PMS_P2;Temp;Humidity;BMP_temperature;BMP_pressure;BME280_temperature;BME280_humidity;BME280_pressure;Samples;Min_cycle;Max_cycle;Signal;HPM_P1;HPM_P2
2023/07/15 00:01:20;;;;;;;7.65;2.60;;;24.00;99.90;;;;;;5091161;28;20028;-60
2023/07/15 00:03:47;;;;;;;10.98;3.00;;;24.00;99.90;;;;;;5090858;28;20035;-60
2023/07/15 00:06:14;;;;;;;8.43;2.60;;;23.80;99.90;;;;;;5090446;28;20024;-60
2023/07/15 00:08:39;;;;;;;9.13;2.55;;;23.70;99.90;;;;;;5093739;28;20511;-60
2023/07/15 00:11:09;;;;;;;8.85;2.80;;;23.60;99.90;;;;;;5095172;28;20020;-59
2023/07/15 00:13:35;;;;;;;8.65;2.42;;;23.60;99.90;;;;;;5094532;28;20028;-60
2023/07/15 00:16:02;;;;;;;12.65;3.10;;;23.50;99.90;;;;;;5094501;28;20081;-60
2023/07/15 00:18:28;;;;;;;9.18;2.60;;;23.40;99.90;;;;;;5094769;28;20375;-60
2023/07/15 00:20:53;;;;;;;9.85;2.95;;;23.40;99.90;;;;;;5094383;28;20085;-60
2023/07/15 00:23:24;;;;;;;12.30;3.35;;;23.40;99.90;;;;;;5094536;28;20048;-60
2023/07/15 00:25:50;;;;;;;9.57;2.80;;;23.30;99.90;;;;;;5094457;28;20034;-60
2023/07/15 00:28:17;;;;;;;9.77;2.88;;;23.30;99.90;;;;;;5094483;28;20026;-60
2023/07/15 00:30:44;;;;;;;8.65;2.25;;;23.20;99.90;;;;;;5094490;28;20078;-60
2023/07/15 00:33:15;;;;;;;5.75;2.08;;;23.20;99.90;;;;;;5094426;28;20046;-60
2023/07/15 00:35:42;;;;;;;5.13;2.15;;;23.20;99.90;;;;;;5094449;28;20063;-60
2023/07/15 00:38:07;;;;;;;4.72;1.83;;;23.30;99.90;;;;;;5094484;28;20059;-60
2023/07/15 00:40:38;;;;;;;8.18;2.10;;;23.20;99.90;;;;;;5094537;28;20035;-60
2023/07/15 00:43:41;;;;;;;6.35;2.20;;;23.20;99.90;;;;;;5094310;28;20024;-59
2023/07/15 00:46:26;;;;;;;7.85;2.20;;;23.30;99.90;;;;;;5093843;28;20334;-60
2023/07/15 00:49:10;;;;;;;4.68;1.98;;;23.50;99.90;;;;;;5093617;28;20034;-60
2023/07/15 00:51:40;;;;;;;5.88;2.08;;;23.60;99.90;;;;;;5094343;28;20069;-60
2023/07/15 00:54:09;;;;;;;5.82;1.60;;;23.90;99.90;;;;;;5093952;28;20019;-60
2023/07/15 00:56:37;;;;;;;6.43;2.05;;;23.80;99.90;;;;;;5094030;28;20035;-59
2023/07/15 00:59:03;;;;;;;7.75;2.03;;;23.80;99.90;;;;;;5093984;28;20043;-60
2023/07/15 01:01:30;;;;;;;4.18;1.90;;;23.80;99.90;;;;;;5093688;28;20099;-60
2023/07/15 01:03:56;;;;;;;5.38;1.80;;;23.80;99.90;;;;;;5093220;28;20103;-60
2023/07/15 01:06:22;;;;;;;6.80;2.00;;;23.70;99.90;;;;;;5093734;28;20132;-60
2023/07/15 01:08:48;;;;;;;7.85;2.08;;;23.70;99.90;;;;;;5094062;28;20032;-60
2023/07/15 01:11:13;;;;;;;6.72;2.22;;;23.70;99.90;;;;;;5092431;28;20469;-60
2023/07/15 01:13:39;;;;;;;7.00;2.22;;;23.60;99.90;;;;;;5093591;28;20125;-60
2023/07/15 01:16:05;;;;;;;6.10;2.00;;;23.70;99.90;;;;;;5093679;28;20036;-60
2023/07/15 01:18:31;;;;;;;6.45;2.13;;;23.70;99.90;;;;;;5092782;28;20444;-60
2023/07/15 01:20:58;;;;;;;8.70;2.47;;;23.60;99.90;;;;;;5092477;28;20035;-60
2023/07/15 01:23:28;;;;;;;7.03;2.33;;;23.60;99.90;;;;;;5093373;28;20093;-60
2023/07/15 01:25:54;;;;;;;8.52;2.40;;;23.40;99.90;;;;;;5093766;28;20036;-60
2023/07/15 01:28:20;;;;;;;10.07;2.63;;;23.20;99.90;;;;;;5093612;28;20024;-60
2023/07/15 01:30:45;;;;;;;5.22;2.15;;;23.00;99.90;;;;;;5093223;28;20039;-60
2023/07/15 01:33:15;;;;;;;7.32;2.45;;;23.00;99.90;;;;;;5092847;28;20095;-60
2023/07/15 01:35:48;;;;;;;8.57;2.60;;;22.80;99.90;;;;;;5093094;28;20410;-60
2023/07/15 01:38:14;;;;;;;8.30;2.53;;;22.90;99.90;;;;;;5093088;28;20080;-60
2023/07/15 01:40:40;;;;;;;7.93;2.20;;;22.90;99.90;;;;;;5093117;28;20028;-60
2023/07/15 01:43:06;;;;;;;7.85;2.40;;;22.90;99.90;;;;;;5093252;28;20035;-60
2023/07/15 01:45:32;;;;;;;8.15;2.45;;;22.80;99.90;;;;;;5093472;28;20043;-60
2023/07/15 01:47:57;;;;;;;8.57;2.60;;;22.90;99.90;;;;;;5092415;28;20024;-60
2023/07/15 01:50:23;;;;;;;9.00;2.40;;;22.90;99.90;;;;;;5092969;28;20028;-60
2023/07/15 01:52:48;;;;;;;8.73;2.80;;;23.00;99.90;;;;;;5093144;28;20028;-60
2023/07/15 01:55:15;;;;;;;8.27;2.10;;;23.00;99.90;;;;;;5092695;28;20046;-61
2023/07/15 01:57:41;;;;;;;6.10;1.88;;;22.90;99.90;;;;;;5092592;28;20044;-60
2023/07/15 02:00:08;;;;;;;6.03;1.88;;;22.90;99.90;;;;;;5092684;28;20109;-60
2023/07/15 02:02:34;;;;;;;8.02;1.98;;;23.10;99.90;;;;;;5092631;28;20561;-61
2023/07/15 02:05:00;;;;;;;6.35;1.80;;;23.10;99.90;;;;;;5092703;28;20103;-59
2023/07/15 02:07:25;;;;;;;6.53;2.00;;;23.30;99.90;;;;;;5092503;28;20145;-60
2023/07/15 02:09:51;;;;;;;4.68;1.52;;;23.30;99.90;;;;;;5092637;28;20117;-60
2023/07/15 02:12:17;;;;;;;6.40;1.55;;;23.30;99.90;;;;;;5092501;28;20020;-60
2023/07/15 02:14:43;;;;;;;5.47;1.60;;;23.30;99.90;;;;;;5092052;28;20064;-60
2023/07/15 02:17:09;;;;;;;5.95;1.85;;;23.20;99.90;;;;;;5092276;28;20146;-59
2023/07/15 02:19:34;;;;;;;5.70;1.90;;;23.20;99.90;;;;;;5090950;28;20111;-60
2023/07/15 02:22:00;;;;;;;3.75;1.60;;;23.20;99.90;;;;;;5092084;28;20119;-60
2023/07/15 02:24:26;;;;;;;4.85;1.67;;;23.20;99.90;;;;;;5092288;28;20048;-60
2023/07/15 02:26:52;;;;;;;5.22;1.40;;;23.50;99.90;;;;;;5091914;28;20106;-60
2023/07/15 02:29:18;;;;;;;5.70;1.80;;;23.40;99.90;;;;;;5092153;28;20028;-60
2023/07/15 02:31:44;;;;;;;5.05;1.40;;;23.30;99.90;;;;;;5091836;28;20119;-60
2023/07/15 02:34:10;;;;;;;5.47;1.70;;;23.10;99.90;;;;;;5092071;28;20020;-60
2023/07/15 02:36:36;;;;;;;5.65;1.70;;;23.10;99.90;;;;;;5091833;28;20119;-59
2023/07/15 02:39:04;;;;;;;6.35;1.70;;;23.00;99.90;;;;;;5091875;28;20119;-60
2023/07/15 02:41:31;;;;;;;4.80;1.92;;;22.80;99.90;;;;;;5091982;28;20032;-60
2023/07/15 02:43:56;;;;;;;6.65;1.90;;;22.80;99.90;;;;;;5091418;28;20036;-60
2023/07/15 02:46:22;;;;;;;4.82;1.70;;;22.60;99.90;;;;;;5091782;28;20078;-61
2023/07/15 02:48:48;;;;;;;6.32;1.67;;;22.50;99.90;;;;;;5092071;28;20031;-60
2023/07/15 02:51:13;;;;;;;5.75;1.65;;;22.50;99.90;;;;;;5091918;28;20034;-60
2023/07/15 02:53:42;;;;;;;4.70;1.83;;;22.50;99.90;;;;;;5091663;28;20532;-60
2023/07/15 02:56:08;;;;;;;6.72;1.70;;;22.40;99.90;;;;;;5091296;28;20123;-60
2023/07/15 02:58:34;;;;;;;5.72;1.95;;;22.40;99.90;;;;;;5091248;28;20106;-60
2023/07/15 03:00:59;;;;;;;4.68;1.70;;;22.40;99.90;;;;;;5091716;28;20039;-60
2023/07/15 03:03:25;;;;;;;5.63;1.70;;;22.40;99.90;;;;;;5091475;28;20459;-60
2023/07/15 03:05:54;;;;;;;4.47;1.70;;;22.40;99.90;;;;;;5091624;28;20012;-60
2023/07/15 03:08:20;;;;;;;5.20;1.77;;;22.40;99.90;;;;;;5091386;28;20024;-60
2023/07/15 03:10:46;;;;;;;7.63;1.83;;;22.40;99.90;;;;;;5091275;28;20103;-60
2023/07/15 03:13:12;;;;;;;5.57;1.83;;;22.40;99.90;;;;;;5091054;28;20063;-60
2023/07/15 03:15:39;;;;;;;6.25;1.80;;;22.40;99.90;;;;;;5091372;28;20478;-60
2023/07/15 03:18:05;;;;;;;7.00;1.80;;;22.40;99.90;;;;;;5091039;28;20099;-60
2023/07/15 03:20:31;;;;;;;8.80;2.05;;;22.50;99.90;;;;;;5091781;28;20146;-60
2023/07/15 03:22:57;;;;;;;6.15;1.70;;;22.60;99.90;;;;;;5090991;28;20050;-60
2023/07/15 03:25:23;;;;;;;6.00;1.95;;;22.80;99.90;;;;;;5090998;28;20115;-60
2023/07/15 03:27:50;;;;;;;6.35;1.73;;;22.80;99.90;;;;;;5091257;28;20102;-60
2023/07/15 03:30:17;;;;;;;5.65;1.70;;;22.90;99.90;;;;;;5091332;28;20032;-60
2023/07/15 03:32:44;;;;;;;4.85;1.67;;;22.90;99.90;;;;;;5090995;28;20012;-60
2023/07/15 03:35:10;;;;;;;4.93;1.70;;;22.90;99.90;;;;;;5091087;28;20032;-60
2023/07/15 03:37:42;;;;;;;6.53;2.08;;;23.00;99.90;;;;;;5091049;28;20549;-59
2023/07/15 03:40:10;;;;;;;5.95;1.80;;;23.00;99.90;;;;;;5090864;28;20028;-60
2023/07/15 03:42:35;;;;;;;5.40;1.70;;;22.90;99.90;;;;;;5092801;28;20052;-60
2023/07/15 03:45:02;;;;;;;5.38;1.90;;;22.90;99.90;;;;;;5097999;28;20051;-60
2023/07/15 03:47:27;;;;;;;5.78;2.00;;;23.00;99.90;;;;;;5097780;28;20028;-60
2023/07/15 03:49:53;;;;;;;6.78;2.00;;;23.00;99.90;;;;;;5097615;28;20016;-60
2023/07/15 03:52:19;;;;;;;6.63;2.03;;;23.00;99.90;;;;;;5097570;28;20043;-60
2023/07/15 03:54:44;;;;;;;5.90;1.77;;;22.90;99.90;;;;;;5097341;28;20032;-60
2023/07/15 03:57:11;;;;;;;5.13;1.98;;;22.80;99.90;;;;;;5097404;28;20020;-60
2023/07/15 03:59:37;;;;;;;7.28;1.92;;;22.70;99.90;;;;;;5097720;28;20031;-60
2023/07/15 04:02:03;;;;;;;5.45;2.20;;;22.60;99.90;;;;;;5097422;28;20020;-60
2023/07/15 04:04:29;;;;;;;6.18;1.90;;;22.50;99.90;;;;;;5097530;28;20051;-60
2023/07/15 04:06:55;;;;;;;5.70;2.10;;;22.40;99.90;;;;;;5097992;28;20028;-60
2023/07/15 04:09:21;;;;;;;9.48;2.00;;;22.40;99.90;;;;;;5097564;28;20047;-60
2023/07/15 04:11:47;;;;;;;5.13;1.83;;;22.40;99.90;;;;;;5097265;28;20402;-60
2023/07/15 04:14:13;;;;;;;4.63;1.88;;;22.30;99.90;;;;;;5097101;28;20035;-60
2023/07/15 04:16:39;;;;;;;6.60;2.03;;;22.30;99.90;;;;;;5097466;28;20035;-60
2023/07/15 04:19:05;;;;;;;8.60;2.45;;;22.40;99.90;;;;;;5097356;28;20103;-60
2023/07/15 04:21:31;;;;;;;7.40;1.90;;;22.30;99.90;;;;;;5097260;28;20115;-59
2023/07/15 04:23:57;;;;;;;5.78;1.95;;;22.30;99.90;;;;;;5097409;28;20680;-60
2023/07/15 04:26:24;;;;;;;6.43;1.70;;;22.30;99.90;;;;;;5097353;28;20028;-60
2023/07/15 04:28:51;;;;;;;6.50;2.00;;;22.20;99.90;;;;;;5097252;28;20070;-60
2023/07/15 04:31:17;;;;;;;7.40;1.95;;;22.20;99.90;;;;;;5097345;28;20034;-59
2023/07/15 04:33:47;;;;;;;8.18;2.05;;;22.20;99.90;;;;;;5097424;28;20463;-61
2023/07/15 04:36:14;;;;;;;6.53;1.90;;;22.30;99.90;;;;;;5097526;28;20028;-60
2023/07/15 04:38:40;;;;;;;6.55;1.90;;;22.40;99.90;;;;;;5097088;28;20379;-60
2023/07/15 04:41:06;;;;;;;7.60;2.10;;;22.50;99.90;;;;;;5096762;28;20028;-60
2023/07/15 04:43:32;;;;;;;6.70;2.13;;;22.60;99.90;;;;;;5097292;28;20078;-60
2023/07/15 04:45:59;;;;;;;7.18;1.90;;;22.70;99.90;;;;;;5097190;28;20020;-60
2023/07/15 04:48:25;;;;;;;6.95;2.05;;;22.70;99.90;;;;;;5097552;28;20024;-60
2023/07/15 04:50:51;;;;;;;7.70;2.00;;;22.70;99.90;;;;;;5097118;28;20020;-60
2023/07/15 04:53:17;;;;;;;5.97;1.98;;;22.70;99.90;;;;;;5096791;28;20500;-60
2023/07/15 04:55:45;;;;;;;6.38;1.98;;;22.70;99.90;;;;;;5094129;28;20032;-60
2023/07/15 04:58:12;;;;;;;7.43;2.22;;;22.70;99.90;;;;;;5093976;28;20085;-60
2023/07/15 05:00:37;;;;;;;6.60;2.15;;;22.80;99.90;;;;;;5093674;28;20518;-60
2023/07/15 05:03:06;;;;;;;7.70;2.17;;;22.80;99.90;;;;;;5094232;28;20027;-60
2023/07/15 05:05:32;;;;;;;8.85;2.38;;;22.70;99.90;;;;;;5093736;28;20040;-60
2023/07/15 05:08:17;;;;;;;7.15;1.83;;;22.60;99.90;;;;;;5093710;28;20020;-60
2023/07/15 05:10:44;;;;;;;6.03;2.00;;;22.50;99.90;;;;;;5093515;28;20046;-60
2023/07/15 05:13:10;;;;;;;8.10;1.80;;;22.40;99.90;;;;;;5093901;28;20051;-60
2023/07/15 05:15:36;;;;;;;8.70;2.38;;;22.20;99.90;;;;;;5093589;28;20502;-60
2023/07/15 05:18:04;;;;;;;6.28;2.05;;;22.20;99.90;;;;;;5093283;28;20431;-60
2023/07/15 05:20:31;;;;;;;4.40;1.75;;;22.20;99.90;;;;;;5093481;28;20051;-60
2023/07/15 05:22:57;;;;;;;8.60;2.20;;;22.00;99.90;;;;;;5093653;28;20044;-60
2023/07/15 05:25:23;;;;;;;10.38;2.25;;;21.90;99.90;;;;;;5092972;28;20024;-60
2023/07/15 05:27:49;;;;;;;8.40;2.20;;;21.80;99.90;;;;;;5093747;28;20146;-60
2023/07/15 05:30:15;;;;;;;5.65;2.22;;;21.80;99.90;;;;;;5093223;28;20032;-59
2023/07/15 05:32:41;;;;;;;6.82;2.30;;;21.90;99.90;;;;;;5093558;28;20021;-60
2023/07/15 05:35:07;;;;;;;6.18;2.05;;;21.90;99.90;;;;;;5093065;28;20383;-60
2023/07/15 05:37:33;;;;;;;6.13;1.92;;;21.90;99.90;;;;;;5093118;28;20134;-60
2023/07/15 05:39:58;;;;;;;5.47;2.38;;;21.90;99.90;;;;;;5092873;28;20032;-60
2023/07/15 05:42:24;;;;;;;5.85;1.67;;;21.90;99.90;;;;;;5083899;28;20036;-60
2023/07/15 05:44:50;;;;;;;8.50;2.05;;;21.90;99.90;;;;;;5072807;28;20111;-60
2023/07/15 05:47:16;;;;;;;7.65;2.00;;;21.90;99.90;;;;;;5072694;28;20021;-60
2023/07/15 05:49:42;;;;;;;8.10;2.58;;;21.90;99.90;;;;;;5073128;28;20020;-59
2023/07/15 05:52:08;;;;;;;7.65;2.28;;;21.90;99.90;;;;;;5072821;28;20567;-60
2023/07/15 05:54:33;;;;;;;7.05;2.03;;;22.10;99.90;;;;;;5072263;28;20037;-59
2023/07/15 05:56:59;;;;;;;8.50;2.20;;;22.30;99.90;;;;;;5072778;28;20063;-60
2023/07/15 05:59:24;;;;;;;7.75;2.20;;;22.40;99.90;;;;;;5072512;28;20009;-59
2023/07/15 06:01:50;;;;;;;7.53;2.63;;;22.40;99.90;;;;;;5073005;28;20483;-59
2023/07/15 06:04:16;;;;;;;7.53;2.60;;;22.40;99.90;;;;;;5072402;28;20535;-59
2023/07/15 06:06:41;;;;;;;7.90;2.60;;;22.40;99.90;;;;;;5072119;28;20032;-59
2023/07/15 06:09:07;;;;;;;6.03;2.20;;;22.50;99.90;;;;;;5072376;28;20403;-59
2023/07/15 06:11:33;;;;;;;7.50;2.65;;;22.50;99.90;;;;;;5075155;28;20055;-60
2023/07/15 06:14:03;;;;;;;7.90;2.60;;;22.50;99.90;;;;;;5072075;28;20017;-59
2023/07/15 06:16:29;;;;;;;6.80;2.28;;;22.50;99.90;;;;;;5071724;28;20043;-59
2023/07/15 06:18:55;;;;;;;5.32;2.58;;;22.50;99.90;;;;;;5087150;28;20036;-58
2023/07/15 06:21:20;;;;;;;6.35;2.60;;;22.60;99.90;;;;;;5092266;28;20398;-59
2023/07/15 06:23:46;;;;;;;6.70;2.25;;;22.70;99.90;;;;;;5091812;28;20062;-58
2023/07/15 06:26:12;;;;;;;7.40;2.15;;;22.60;99.90;;;;;;5092063;28;20055;-60
2023/07/15 06:28:39;;;;;;;6.53;2.40;;;22.50;99.90;;;;;;5092617;28;20028;-59
2023/07/15 06:31:06;;;;;;;7.78;2.60;;;22.30;99.90;;;;;;5092141;28;20031;-57
2023/07/15 06:33:34;;;;;;;5.88;2.40;;;22.20;99.90;;;;;;5091907;28;20063;-58
2023/07/15 06:36:00;;;;;;;6.55;2.30;;;22.00;99.90;;;;;;5092123;28;20074;-57
2023/07/15 06:38:27;;;;;;;6.20;2.38;;;22.00;99.90;;;;;;5092021;28;20333;-57
2023/07/15 06:40:54;;;;;;;6.78;2.40;;;21.90;99.90;;;;;;5091936;28;20031;-59
2023/07/15 06:43:19;;;;;;;7.85;2.50;;;21.90;99.90;;;;;;5091964;28;20440;-59
2023/07/15 06:45:45;;;;;;;7.65;2.30;;;21.90;99.90;;;;;;5092223;28;20024;-58
2023/07/15 06:48:11;;;;;;;5.32;2.38;;;21.90;99.90;;;;;;5091932;28;20506;-59
2023/07/15 06:50:37;;;;;;;6.70;2.60;;;21.80;99.90;;;;;;5090280;28;20039;-58
2023/07/15 06:53:03;;;;;;;8.07;2.30;;;21.70;99.90;;;;;;5091636;28;20020;-59
2023/07/15 06:55:29;;;;;;;8.80;2.72;;;21.70;99.90;;;;;;5091785;28;20040;-59
2023/07/15 06:57:54;;;;;;;8.55;2.47;;;21.70;99.90;;;;;;5091203;28;20020;-59
2023/07/15 07:00:22;;;;;;;7.32;2.67;;;21.70;99.90;;;;;;5092230;28;20564;-60
2023/07/15 07:02:48;;;;;;;9.40;2.60;;;21.60;99.90;;;;;;5091558;28;20024;-59
2023/07/15 07:05:15;;;;;;;7.10;2.10;;;21.60;99.90;;;;;;5091244;28;20028;-59
2023/07/15 07:07:41;;;;;;;5.95;2.30;;;21.60;99.90;;;;;;5091677;28;20024;-59
2023/07/15 07:10:07;;;;;;;5.22;2.38;;;21.70;99.90;;;;;;5091449;28;20031;-59
2023/07/15 07:12:33;;;;;;;6.60;2.53;;;21.80;99.90;;;;;;5091959;28;20388;-59
2023/07/15 07:14:59;;;;;;;6.55;2.78;;;21.80;99.90;;;;;;5091419;28;20039;-59
2023/07/15 07:17:24;;;;;;;7.20;2.58;;;21.90;99.90;;;;;;5090321;28;20020;-58
2023/07/15 07:19:50;;;;;;;6.20;2.30;;;21.80;99.90;;;;;;5090975;28;20036;-59
2023/07/15 07:22:16;;;;;;;6.80;2.55;;;21.80;99.90;;;;;;5091708;28;20576;-58
2023/07/15 07:24:41;;;;;;;7.45;2.75;;;21.70;99.90;;;;;;5090728;28;20411;-59
2023/07/15 07:27:07;;;;;;;6.35;2.63;;;21.60;99.90;;;;;;5091338;28;20077;-59
2023/07/15 07:29:34;;;;;;;6.25;2.53;;;21.80;99.90;;;;;;5091604;28;20090;-59
2023/07/15 07:32:00;;;;;;;7.50;3.10;;;21.70;99.90;;;;;;5091195;28;20024;-59
2023/07/15 07:34:25;;;;;;;6.50;2.60;;;21.70;99.90;;;;;;5091044;28;20028;-59
2023/07/15 07:36:51;;;;;;;6.13;2.47;;;21.60;99.90;;;;;;5091122;28;20066;-59
2023/07/15 07:39:17;;;;;;;6.55;2.63;;;21.70;99.90;;;;;;5091212;28;20032;-58
2023/07/15 07:41:42;;;;;;;7.10;2.70;;;21.40;99.90;;;;;;5090443;28;20024;-59
2023/07/15 07:44:09;;;;;;;6.25;3.03;;;21.30;99.90;;;;;;5091163;28;20024;-59
2023/07/15 07:46:35;;;;;;;5.03;2.50;;;21.20;99.90;;;;;;5091263;28;20024;-60
2023/07/15 07:49:01;;;;;;;6.25;2.90;;;21.10;99.90;;;;;;5090782;28;20089;-60
2023/07/15 07:51:26;;;;;;;7.57;2.45;;;21.10;99.90;;;;;;5091133;28;20028;-59
2023/07/15 07:53:52;;;;;;;6.90;2.95;;;21.00;99.90;;;;;;5091039;28;20123;-59
2023/07/15 07:56:18;;;;;;;10.00;3.30;;;20.90;99.90;;;;;;5091378;28;20111;-59
2023/07/15 07:58:44;;;;;;;8.35;3.20;;;21.00;99.90;;;;;;5091098;28;20478;-59
2023/07/15 08:01:10;;;;;;;9.25;2.95;;;21.00;99.90;;;;;;5090934;28;20020;-59
2023/07/15 08:03:36;;;;;;;8.82;2.92;;;21.00;99.90;;;;;;5090575;28;20167;-59
2023/07/15 08:06:04;;;;;;;10.25;3.28;;;20.90;99.90;;;;;;5091398;28;20109;-60
2023/07/15 08:08:30;;;;;;;11.07;3.40;;;20.90;99.90;;;;;;5090873;28;20035;-59
2023/07/15 08:10:56;;;;;;;7.47;3.00;;;20.90;99.90;;;;;;5090935;28;20024;-59
2023/07/15 08:13:22;;;;;;;9.90;3.45;;;20.90;99.90;;;;;;5090917;28;20028;-59
2023/07/15 08:15:47;;;;;;;9.55;2.80;;;20.90;99.90;;;;;;5090881;28;20032;-59
2023/07/15 08:18:13;;;;;;;9.50;3.30;;;20.90;99.90;;;;;;5090313;28;20422;-59
2023/07/15 08:20:42;;;;;;;7.35;3.00;;;20.90;99.90;;;;;;5091120;28;20037;-60
2023/07/15 08:23:08;;;;;;;6.80;2.90;;;21.00;99.90;;;;;;5090798;28;20074;-59
2023/07/15 08:25:36;;;;;;;8.23;3.00;;;21.30;99.90;;;;;;5090926;28;20028;-59
2023/07/15 08:28:01;;;;;;;6.65;2.80;;;21.50;99.90;;;;;;5090767;28;20032;-59
2023/07/15 08:30:27;;;;;;;7.78;2.80;;;21.60;99.90;;;;;;5094343;28;20077;-59
2023/07/15 08:32:53;;;;;;;9.35;3.10;;;21.60;99.90;;;;;;5094493;28;20020;-60
2023/07/15 08:35:18;;;;;;;6.30;2.83;;;21.70;99.90;;;;;;5094095;28;20036;-59
2023/07/15 08:37:44;;;;;;;6.65;2.95;;;21.70;99.90;;;;;;5094936;28;20100;-59
2023/07/15 08:40:13;;;;;;;6.65;2.80;;;21.70;99.90;;;;;;5093994;28;20024;-60
2023/07/15 08:42:40;;;;;;;7.70;3.15;;;21.70;99.90;;;;;;5094779;28;20020;-59
2023/07/15 08:45:06;;;;;;;7.68;2.95;;;21.70;99.90;;;;;;5094368;28;20099;-59
2023/07/15 08:47:32;;;;;;;9.65;2.90;;;21.80;99.90;;;;;;5093958;28;20031;-59
2023/07/15 08:50:02;;;;;;;8.00;2.70;;;21.90;99.90;;;;;;5094825;28;20028;-59
2023/07/15 08:52:30;;;;;;;8.43;3.03;;;22.00;99.90;;;;;;5094200;28;20066;-59
2023/07/15 08:54:56;;;;;;;7.45;2.83;;;22.00;99.90;;;;;;5094092;28;20032;-59
2023/07/15 08:57:23;;;;;;;8.27;3.08;;;22.00;99.90;;;;;;5094091;28;20055;-59
2023/07/15 08:59:56;;;;;;;8.25;2.75;;;21.70;99.90;;;;;;5094559;28;20113;-60
2023/07/15 09:02:22;;;;;;;10.55;3.40;;;21.60;99.90;;;;;;5093550;28;20054;-59
2023/07/15 09:04:48;;;;;;;8.43;3.22;;;21.60;99.90;;;;;;5093723;28;20028;-59
2023/07/15 09:07:14;;;;;;;10.10;3.60;;;21.50;99.90;;;;;;5093083;28;20050;-59
2023/07/15 09:09:39;;;;;;;7.13;2.85;;;21.40;99.90;;;;;;5093147;28;20107;-59
2023/07/15 09:12:09;;;;;;;9.52;2.90;;;21.10;99.90;;;;;;5093846;28;20046;-59
2023/07/15 09:14:45;;;;;;;6.57;2.83;;;20.80;99.90;;;;;;5093615;28;20056;-58
2023/07/15 09:17:19;;;;;;;6.05;2.30;;;20.70;99.90;;;;;;5093418;28;20034;-59
2023/07/15 09:19:46;;;;;;;4.75;2.13;;;20.50;99.90;;;;;;5089237;28;20032;-59
2023/07/15 09:22:12;;;;;;;5.63;1.98;;;20.20;99.90;;;;;;5093717;28;20032;-59
2023/07/15 09:24:38;;;;;;;3.65;1.73;;;20.30;99.90;;;;;;5093335;28;20052;-60
2023/07/15 09:27:05;;;;;;;6.10;2.22;;;20.40;99.90;;;;;;5093602;28;20494;-60
2023/07/15 09:29:31;;;;;;;5.03;2.30;;;20.60;99.90;;;;;;5093649;28;20043;-59
2023/07/15 09:31:57;;;;;;;6.70;2.60;;;20.60;99.90;;;;;;5093115;28;20383;-60
2023/07/15 09:34:24;;;;;;;6.90;2.60;;;20.70;99.90;;;;;;5093365;28;20073;-60
2023/07/15 09:36:51;;;;;;;8.85;2.70;;;20.80;99.90;;;;;;5093330;28;20036;-59
2023/07/15 09:39:19;;;;;;;6.40;2.65;;;20.80;99.90;;;;;;5093297;28;20498;-59
2023/07/15 09:42:02;;;;;;;6.00;2.53;;;21.00;99.90;;;;;;5092353;28;20068;-59
2023/07/15 09:44:34;;;;;;;6.23;2.80;;;21.10;99.90;;;;;;5092941;28;20445;-59
2023/07/15 09:47:02;;;;;;;7.03;2.83;;;21.30;99.90;;;;;;5093358;28;20016;-59
2023/07/15 09:49:28;;;;;;;8.45;2.90;;;21.30;99.90;;;;;;5093433;28;20032;-59
2023/07/15 09:51:54;;;;;;;8.40;2.63;;;21.30;99.90;;;;;;5093161;28;20512;-59
2023/07/15 09:54:23;;;;;;;6.03;2.50;;;21.30;99.90;;;;;;5092920;28;20032;-59
2023/07/15 09:56:52;;;;;;;5.70;2.60;;;21.30;99.90;;;;;;5092897;28;20416;-59
2023/07/15 09:59:22;;;;;;;6.68;2.80;;;21.30;99.90;;;;;;5092572;28;20016;-59
2023/07/15 10:01:51;;;;;;;7.22;2.75;;;21.30;99.90;;;;;;5092916;28;20023;-60
2023/07/15 10:04:32;;;;;;;7.60;2.95;;;21.30;99.90;;;;;;5093143;28;20559;-59
2023/07/15 10:07:00;;;;;;;8.30;2.95;;;21.50;99.90;;;;;;5092789;28;20028;-59
2023/07/15 10:09:26;;;;;;;9.82;2.90;;;21.30;99.90;;;;;;5091413;28;20391;-59
2023/07/15 10:11:54;;;;;;;7.88;2.95;;;21.40;99.90;;;;;;5092978;28;20027;-59
2023/07/15 10:14:21;;;;;;;11.38;3.60;;;21.20;99.90;;;;;;5092233;28;20031;-59
2023/07/15 10:17:10;;;;;;;8.20;3.30;;;21.00;99.90;;;;;;5092479;28;20119;-59
2023/07/15 10:19:50;;;;;;;7.53;3.10;;;20.80;99.90;;;;;;5092974;28;20028;-59
2023/07/15 10:22:23;;;;;;;9.07;3.40;;;20.70;99.90;;;;;;5092529;28;20031;-59
2023/07/15 10:24:54;;;;;;;7.18;3.42;;;20.80;99.90;;;;;;5092220;28;20519;-60
2023/07/15 10:27:20;;;;;;;12.73;3.78;;;20.80;99.90;;;;;;5092608;28;20077;-60
2023/07/15 10:29:46;;;;;;;9.98;3.38;;;20.70;99.90;;;;;;5092008;28;20024;-60
2023/07/15 10:32:14;;;;;;;9.40;3.40;;;20.70;99.90;;;;;;5085973;28;20435;-60
2023/07/15 10:34:49;;;;;;;8.52;3.40;;;20.80;99.90;;;;;;5076507;28;20032;-60
2023/07/15 10:37:16;;;;;;;9.95;3.75;;;20.80;99.90;;;;;;5081681;28;20016;-61
2023/07/15 10:39:44;;;;;;;10.82;3.65;;;20.80;99.90;;;;;;5083956;28;20037;-60
2023/07/15 10:42:13;;;;;;;9.02;3.47;;;20.80;99.90;;;;;;5071707;28;20135;-60
2023/07/15 10:44:40;;;;;;;9.73;3.35;;;20.70;99.90;;;;;;5071594;28;20035;-60
2023/07/15 10:47:07;;;;;;;7.80;3.00;;;20.70;99.90;;;;;;5071675;28;20031;-60
2023/07/15 10:49:33;;;;;;;10.35;3.60;;;20.70;99.90;;;;;;5072113;28;20042;-60
2023/07/15 10:51:59;;;;;;;9.75;3.58;;;20.80;99.90;;;;;;5071474;28;20028;-60
2023/07/15 10:54:27;;;;;;;9.05;3.33;;;20.70;99.90;;;;;;5078114;28;20074;-60
2023/07/15 10:56:53;;;;;;;10.48;4.10;;;20.80;99.90;;;;;;5083142;28;20388;-61
2023/07/15 10:59:23;;;;;;;11.20;4.00;;;21.10;99.90;;;;;;5071482;28;20025;-60
2023/07/15 11:01:48;;;;;;;9.05;3.33;;;21.10;99.90;;;;;;5071501;28;20562;-60
2023/07/15 11:04:19;;;;;;;12.82;4.28;;;21.20;99.90;;;;;;5071259;28;20116;-60
2023/07/15 11:06:45;;;;;;;12.00;4.30;;;21.20;99.90;;;;;;5071293;28;20116;-60
2023/07/15 11:09:19;;;;;;;10.43;3.50;;;21.30;99.90;;;;;;5071285;28;20470;-60
2023/07/15 11:11:45;;;;;;;10.00;3.85;;;21.30;99.90;;;;;;5071617;28;20048;-60
2023/07/15 11:14:21;;;;;;;8.45;3.55;;;21.40;99.90;;;;;;5070884;28;20442;-60
2023/07/15 11:16:50;;;;;;;7.65;3.42;;;21.50;99.90;;;;;;5071277;28;20094;-60
2023/07/15 11:19:15;;;;;;;9.35;3.38;;;21.60;99.90;;;;;;5087465;28;20047;-60
2023/07/15 11:21:44;;;;;;;10.35;3.42;;;21.60;99.90;;;;;;5091657;28;20569;-59
2023/07/15 11:24:14;;;;;;;9.30;3.53;;;21.60;99.90;;;;;;5090959;28;20068;-60
2023/07/15 11:26:40;;;;;;;9.57;3.50;;;21.90;99.90;;;;;;5090735;28;20133;-59
2023/07/15 11:29:14;;;;;;;10.90;3.67;;;21.90;99.90;;;;;;5091889;28;20020;-60
2023/07/15 11:31:41;;;;;;;9.23;3.67;;;21.90;99.90;;;;;;5091349;28;20035;-60
2023/07/15 11:34:09;;;;;;;12.30;4.22;;;22.00;99.90;;;;;;5091253;28;20035;-61
2023/07/15 11:36:37;;;;;;;10.73;3.65;;;21.90;99.90;;;;;;5091094;28;20044;-59
2023/07/15 11:39:04;;;;;;;9.52;3.65;;;21.80;99.90;;;;;;5091290;28;20052;-60
2023/07/15 11:41:32;;;;;;;9.00;3.60;;;21.60;99.90;;;;;;5090672;28;20036;-60
2023/07/15 11:43:58;;;;;;;7.97;3.30;;;21.50;99.90;;;;;;5091246;28;20048;-60
2023/07/15 11:46:24;;;;;;;10.63;3.10;;;21.30;99.90;;;;;;5091079;28;20077;-59
2023/07/15 11:48:50;;;;;;;11.50;3.88;;;21.30;99.90;;;;;;5091211;28;20032;-59
2023/07/15 11:51:15;;;;;;;11.18;3.72;;;21.30;99.90;;;;;;5091587;28;20103;-59
2023/07/15 11:53:44;;;;;;;9.05;3.60;;;21.30;99.90;;;;;;5091071;28;20066;-60
2023/07/15 11:56:10;;;;;;;12.13;3.50;;;21.40;99.90;;;;;;5090751;28;20129;-60
2023/07/15 11:58:56;;;;;;;11.25;3.53;;;21.50;99.90;;;;;;5091120;28;20375;-59
2023/07/15 12:01:25;;;;;;;11.82;3.78;;;21.60;99.90;;;;;;5091080;28;20051;-59
2023/07/15 12:03:52;;;;;;;10.55;3.70;;;21.60;99.90;;;;;;5092171;28;20150;-60
2023/07/15 12:06:19;;;;;;;8.77;3.60;;;21.70;99.90;;;;;;5095048;28;20036;-60
2023/07/15 12:09:05;;;;;;;13.05;3.70;;;21.70;99.90;;;;;;5095107;28;20031;-59
2023/07/15 12:11:32;;;;;;;11.00;3.70;;;21.80;99.90;;;;;;5094679;28;20055;-60
2023/07/15 12:13:59;;;;;;;9.82;3.40;;;22.10;99.90;;;;;;5094965;28;20020;-60
2023/07/15 12:16:25;;;;;;;10.90;3.10;;;22.30;99.90;;;;;;5093615;28;20036;-60
2023/07/15 12:18:52;;;;;;;12.65;3.13;;;22.40;99.90;;;;;;5093413;28;20425;-60
2023/07/15 12:21:19;;;;;;;9.77;3.92;;;22.40;99.90;;;;;;5089493;28;20032;-59
2023/07/15 12:23:44;;;;;;;11.32;3.35;;;22.40;99.90;;;;;;5092273;28;20043;-60
2023/07/15 12:26:10;;;;;;;10.95;3.10;;;22.40;99.90;;;;;;5094403;28;20013;-59
2023/07/15 12:28:36;;;;;;;9.90;3.17;;;22.40;99.90;;;;;;5094408;28;20510;-58
2023/07/15 12:31:02;;;;;;;10.88;3.50;;;22.60;99.90;;;;;;5089096;28;20482;-60
2023/07/15 12:33:27;;;;;;;9.85;3.10;;;22.60;99.90;;;;;;5094069;28;20062;-59
2023/07/15 12:35:53;;;;;;;10.70;3.55;;;22.60;99.90;;;;;;5084656;28;20043;-60
2023/07/15 12:38:19;;;;;;;14.30;4.00;;;22.50;99.90;;;;;;5083054;28;20099;-60
2023/07/15 12:40:45;;;;;;;11.70;3.60;;;22.60;99.90;;;;;;5074147;28;20027;-60
2023/07/15 12:43:10;;;;;;;9.55;3.10;;;22.80;99.90;;;;;;5074223;28;20471;-59
2023/07/15 12:45:36;;;;;;;10.63;3.60;;;22.80;99.90;;;;;;5074105;28;20035;-60